sensor_id;sensor_type;location;lat;lon;timestamp;pressure;altitude;pressure_sealevel;temperature;humidity
42385;BME280;28042;43.986;22.860;2022-08-01T00:01:02;100807.34;;;19.49;55.69
42385;BME280;28042;43.986;22.860;2022-08-01T00:03:27;100800.16;;;19.48;55.80
42385;BME280;28042;43.986;22.860;2022-08-01T00:05:52;100803.66;;;19.44;55.25
42385;BME280;28042;43.986;22.860;2022-08-01T00:08:18;100805.69;;;19.48;54.85
42385;BME280;28042;43.986;22.860;2022-08-01T00:10:43;100806.25;;;19.51;54.18
42385;BME280;28042;43.986;22.860;2022-08-01T00:13:08;100803.66;;;19.61;53.49
42385;BME280;28042;43.986;22.860;2022-08-01T00:15:34;100808.19;;;19.67;52.44
42385;BME280;28042;43.986;22.860;2022-08-01T00:17:59;100796.59;;;19.70;52.36
42385;BME280;28042;43.986;22.860;2022-08-01T00:20:24;100797.06;;;19.84;51.39
42385;BME280;28042;43.986;22.860;2022-08-01T00:22:50;100802.38;;;20.07;49.82
42385;BME280;28042;43.986;22.860;2022-08-01T00:25:15;100799.72;;;20.17;49.35
42385;BME280;28042;43.986;22.860;2022-08-01T00:27:40;100796.16;;;20.22;49.27
42385;BME280;28042;43.986;22.860;2022-08-01T00:30:06;100800.09;;;20.26;49.27
42385;BME280;28042;43.986;22.860;2022-08-01T00:32:31;100799.03;;;20.32;49.17
42385;BME280;28042;43.986;22.860;2022-08-01T00:34:57;100792.91;;;20.30;49.32
42385;BME280;28042;43.986;22.860;2022-08-01T00:37:22;100796.03;;;20.33;49.15
42385;BME280;28042;43.986;22.860;2022-08-01T00:39:47;100788.28;;;20.36;48.94
42385;BME280;28042;43.986;22.860;2022-08-01T00:42:13;100793.00;;;20.35;49.03
42385;BME280;28042;43.986;22.860;2022-08-01T00:44:38;100791.81;;;20.31;49.15
42385;BME280;28042;43.986;22.860;2022-08-01T00:47:04;100796.22;;;20.27;49.53
42385;BME280;28042;43.986;22.860;2022-08-01T00:49:30;100803.97;;;20.25;49.80
42385;BME280;28042;43.986;22.860;2022-08-01T00:51:55;100800.03;;;20.21;50.36
42385;BME280;28042;43.986;22.860;2022-08-01T00:54:21;100798.28;;;20.15;50.92
42385;BME280;28042;43.986;22.860;2022-08-01T00:56:47;100797.13;;;20.11;51.59
42385;BME280;28042;43.986;22.860;2022-08-01T00:59:12;100790.94;;;20.03;51.98
42385;BME280;28042;43.986;22.860;2022-08-01T01:01:39;100789.72;;;19.94;52.64
42385;BME280;28042;43.986;22.860;2022-08-01T01:04:04;100783.53;;;19.87;53.23
42385;BME280;28042;43.986;22.860;2022-08-01T01:14:30;100786.50;;;19.59;54.26
42385;BME280;28042;43.986;22.860;2022-08-01T01:16:58;100797.22;;;19.55;54.45
42385;BME280;28042;43.986;22.860;2022-08-01T01:19:24;100796.59;;;19.53;54.39
42385;BME280;28042;43.986;22.860;2022-08-01T01:27:24;100795.47;;;19.49;54.31
42385;BME280;28042;43.986;22.860;2022-08-01T01:29:52;100805.69;;;19.48;54.39
42385;BME280;28042;43.986;22.860;2022-08-01T01:32:30;100791.75;;;19.43;54.19
42385;BME280;28042;43.986;22.860;2022-08-01T01:35:00;100789.56;;;19.45;54.12
42385;BME280;28042;43.986;22.860;2022-08-01T01:37:27;100779.88;;;19.43;54.02
42385;BME280;28042;43.986;22.860;2022-08-01T01:39:53;100782.97;;;19.46;54.06
42385;BME280;28042;43.986;22.860;2022-08-01T01:42:19;100779.16;;;19.53;53.04
42385;BME280;28042;43.986;22.860;2022-08-01T01:44:46;100785.41;;;19.60;52.51
42385;BME280;28042;43.986;22.860;2022-08-01T01:47:13;100775.81;;;19.67;51.75
42385;BME280;28042;43.986;22.860;2022-08-01T01:49:39;100782.84;;;19.75;51.00
42385;BME280;28042;43.986;22.860;2022-08-01T01:52:06;100776.28;;;19.81;50.89
42385;BME280;28042;43.986;22.860;2022-08-01T01:54:36;100769.38;;;19.84;50.51
42385;BME280;28042;43.986;22.860;2022-08-01T01:57:03;100759.97;;;19.85;50.29
42385;BME280;28042;43.986;22.860;2022-08-01T01:59:30;100766.66;;;19.89;50.05
42385;BME280;28042;43.986;22.860;2022-08-01T02:01:57;100760.91;;;19.90;49.86
42385;BME280;28042;43.986;22.860;2022-08-01T02:04:24;100761.47;;;19.92;49.78
42385;BME280;28042;43.986;22.860;2022-08-01T02:06:51;100766.75;;;19.94;49.66
42385;BME280;28042;43.986;22.860;2022-08-01T02:09:17;100753.16;;;19.92;49.72
42385;BME280;28042;43.986;22.860;2022-08-01T02:11:44;100758.06;;;19.85;49.91
42385;BME280;28042;43.986;22.860;2022-08-01T02:14:11;100754.13;;;19.81;50.21
42385;BME280;28042;43.986;22.860;2022-08-01T02:16:38;100749.63;;;19.75;50.14
42385;BME280;28042;43.986;22.860;2022-08-01T02:19:05;100759.06;;;19.79;50.05
42385;BME280;28042;43.986;22.860;2022-08-01T02:21:52;100745.75;;;19.76;50.06
42385;BME280;28042;43.986;22.860;2022-08-01T02:24:17;100751.28;;;19.76;50.08
42385;BME280;28042;43.986;22.860;2022-08-01T02:26:46;100752.84;;;19.67;50.60
42385;BME280;28042;43.986;22.860;2022-08-01T02:29:14;100749.28;;;19.71;50.71
42385;BME280;28042;43.986;22.860;2022-08-01T02:31:40;100756.34;;;19.62;51.11
42385;BME280;28042;43.986;22.860;2022-08-01T02:34:09;100748.41;;;19.66;50.42
42385;BME280;28042;43.986;22.860;2022-08-01T02:36:38;100744.97;;;19.59;50.93
42385;BME280;28042;43.986;22.860;2022-08-01T02:39:08;100749.34;;;19.55;50.98
42385;BME280;28042;43.986;22.860;2022-08-01T02:41:36;100743.81;;;19.55;50.95
42385;BME280;28042;43.986;22.860;2022-08-01T02:44:04;100742.31;;;19.47;51.32
42385;BME280;28042;43.986;22.860;2022-08-01T02:46:38;100736.16;;;19.45;51.30
42385;BME280;28042;43.986;22.860;2022-08-01T02:49:05;100734.44;;;19.39;51.41
42385;BME280;28042;43.986;22.860;2022-08-01T02:51:32;100739.47;;;19.42;51.09
42385;BME280;28042;43.986;22.860;2022-08-01T02:53:59;100739.72;;;19.40;51.28
42385;BME280;28042;43.986;22.860;2022-08-01T02:56:26;100739.72;;;19.40;51.57
42385;BME280;28042;43.986;22.860;2022-08-01T02:59:00;100737.13;;;19.34;51.69
42385;BME280;28042;43.986;22.860;2022-08-01T03:01:26;100734.09;;;19.35;51.51
42385;BME280;28042;43.986;22.860;2022-08-01T03:03:52;100727.56;;;19.41;50.96
42385;BME280;28042;43.986;22.860;2022-08-01T03:06:17;100734.22;;;19.45;50.88
42385;BME280;28042;43.986;22.860;2022-08-01T03:08:43;100726.53;;;19.47;50.92
42385;BME280;28042;43.986;22.860;2022-08-01T03:11:09;100730.06;;;19.43;51.09
42385;BME280;28042;43.986;22.860;2022-08-01T03:13:37;100731.25;;;19.47;51.05
42385;BME280;28042;43.986;22.860;2022-08-01T03:16:02;100729.88;;;19.49;50.85
42385;BME280;28042;43.986;22.860;2022-08-01T03:18:29;100726.03;;;19.51;50.80
42385;BME280;28042;43.986;22.860;2022-08-01T03:20:55;100724.66;;;19.53;50.50
42385;BME280;28042;43.986;22.860;2022-08-01T03:23:21;100727.69;;;19.52;50.62
42385;BME280;28042;43.986;22.860;2022-08-01T03:25:47;100733.22;;;19.52;50.75
42385;BME280;28042;43.986;22.860;2022-08-01T03:28:14;100739.84;;;19.51;50.97
42385;BME280;28042;43.986;22.860;2022-08-01T03:30:40;100741.03;;;19.55;50.98
42385;BME280;28042;43.986;22.860;2022-08-01T03:33:07;100746.97;;;19.63;51.08
42385;BME280;28042;43.986;22.860;2022-08-01T03:35:36;100751.16;;;19.66;50.84
42385;BME280;28042;43.986;22.860;2022-08-01T03:38:04;100746.91;;;19.80;50.41
42385;BME280;28042;43.986;22.860;2022-08-01T03:40:53;100752.31;;;19.92;50.39
42385;BME280;28042;43.986;22.860;2022-08-01T03:43:19;100749.47;;;20.09;50.19
42385;BME280;28042;43.986;22.860;2022-08-01T03:45:48;100749.69;;;20.29;50.14
42385;BME280;28042;43.986;22.860;2022-08-01T03:48:16;100750.75;;;20.50;49.76
42385;BME280;28042;43.986;22.860;2022-08-01T03:50:42;100749.50;;;20.63;47.93
42385;BME280;28042;43.986;22.860;2022-08-01T03:53:08;100751.75;;;20.98;47.94
42385;BME280;28042;43.986;22.860;2022-08-01T03:55:35;100758.59;;;21.69;46.40
42385;BME280;28042;43.986;22.860;2022-08-01T03:58:03;100753.59;;;22.44;45.11
42385;BME280;28042;43.986;22.860;2022-08-01T04:00:29;100761.72;;;22.97;42.34
42385;BME280;28042;43.986;22.860;2022-08-01T04:02:55;100760.50;;;23.54;41.11
42385;BME280;28042;43.986;22.860;2022-08-01T04:05:20;100758.13;;;24.07;40.05
42385;BME280;28042;43.986;22.860;2022-08-01T04:07:47;100751.28;;;24.38;39.76
42385;BME280;28042;43.986;22.860;2022-08-01T04:10:13;100755.84;;;24.63;38.80
42385;BME280;28042;43.986;22.860;2022-08-01T04:12:38;100754.50;;;24.56;38.83
42385;BME280;28042;43.986;22.860;2022-08-01T04:15:05;100754.66;;;24.35;39.21
42385;BME280;28042;43.986;22.860;2022-08-01T04:17:31;100763.31;;;24.34;39.33
42385;BME280;28042;43.986;22.860;2022-08-01T04:19:56;100777.03;;;24.15;39.95
42385;BME280;28042;43.986;22.860;2022-08-01T04:22:22;100776.22;;;24.09;40.08
42385;BME280;28042;43.986;22.860;2022-08-01T04:24:48;100782.66;;;24.05;40.40
42385;BME280;28042;43.986;22.860;2022-08-01T04:27:15;100776.66;;;24.37;39.95
42385;BME280;28042;43.986;22.860;2022-08-01T04:29:43;100775.84;;;24.75;39.30
42385;BME280;28042;43.986;22.860;2022-08-01T04:32:10;100770.94;;;24.62;39.30
42385;BME280;28042;43.986;22.860;2022-08-01T04:34:37;100776.25;;;24.59;38.99
42385;BME280;28042;43.986;22.860;2022-08-01T04:37:03;100780.03;;;24.78;38.95
42385;BME280;28042;43.986;22.860;2022-08-01T04:39:31;100780.75;;;24.55;39.42
42385;BME280;28042;43.986;22.860;2022-08-01T04:41:58;100776.91;;;24.40;39.81
42385;BME280;28042;43.986;22.860;2022-08-01T04:44:25;100779.22;;;24.23;39.91
42385;BME280;28042;43.986;22.860;2022-08-01T04:46:52;100772.50;;;24.29;40.04
42385;BME280;28042;43.986;22.860;2022-08-01T04:49:19;100768.34;;;24.71;39.82
42385;BME280;28042;43.986;22.860;2022-08-01T04:51:49;100777.00;;;25.08;38.46
42385;BME280;28042;43.986;22.860;2022-08-01T04:54:15;100782.69;;;25.27;38.31
42385;BME280;28042;43.986;22.860;2022-08-01T04:56:41;100779.69;;;25.19;38.46
42385;BME280;28042;43.986;22.860;2022-08-01T04:59:06;100781.78;;;25.37;38.45
42385;BME280;28042;43.986;22.860;2022-08-01T05:01:50;100791.53;;;25.05;38.53
42385;BME280;28042;43.986;22.860;2022-08-01T05:04:15;100782.94;;;25.31;38.35
42385;BME280;28042;43.986;22.860;2022-08-01T05:06:41;100783.19;;;25.05;38.40
42385;BME280;28042;43.986;22.860;2022-08-01T05:09:06;100781.19;;;25.64;38.02
42385;BME280;28042;43.986;22.860;2022-08-01T05:11:31;100776.34;;;25.75;36.72
42385;BME280;28042;43.986;22.860;2022-08-01T05:13:57;100775.25;;;25.47;37.53
42385;BME280;28042;43.986;22.860;2022-08-01T05:16:22;100780.22;;;25.50;37.19
42385;BME280;28042;43.986;22.860;2022-08-01T05:18:47;100785.00;;;25.97;36.27
42385;BME280;28042;43.986;22.860;2022-08-01T05:21:13;100775.34;;;25.60;36.44
42385;BME280;28042;43.986;22.860;2022-08-01T05:23:38;100781.59;;;25.81;36.31
42385;BME280;28042;43.986;22.860;2022-08-01T05:26:03;100772.41;;;26.00;35.92
42385;BME280;28042;43.986;22.860;2022-08-01T05:28:29;100776.22;;;26.28;35.81
42385;BME280;28042;43.986;22.860;2022-08-01T05:30:55;100779.09;;;26.23;35.76
42385;BME280;28042;43.986;22.860;2022-08-01T05:33:20;100779.06;;;26.04;35.41
42385;BME280;28042;43.986;22.860;2022-08-01T05:35:46;100780.22;;;26.21;35.52
42385;BME280;28042;43.986;22.860;2022-08-01T05:38:12;100788.09;;;26.19;35.67
42385;BME280;28042;43.986;22.860;2022-08-01T05:40:37;100789.69;;;25.83;36.12
42385;BME280;28042;43.986;22.860;2022-08-01T05:43:02;100783.81;;;26.03;36.13
42385;BME280;28042;43.986;22.860;2022-08-01T05:45:27;100796.94;;;26.27;36.14
42385;BME280;28042;43.986;22.860;2022-08-01T05:47:53;100788.53;;;26.08;35.52
42385;BME280;28042;43.986;22.860;2022-08-01T05:50:18;100792.25;;;26.22;35.78
42385;BME280;28042;43.986;22.860;2022-08-01T05:52:43;100802.13;;;26.14;35.73
42385;BME280;28042;43.986;22.860;2022-08-01T05:55:09;100792.47;;;26.07;35.78
42385;BME280;28042;43.986;22.860;2022-08-01T05:57:34;100783.09;;;25.69;35.51
42385;BME280;28042;43.986;22.860;2022-08-01T05:59:59;100783.06;;;25.45;36.13
42385;BME280;28042;43.986;22.860;2022-08-01T06:02:25;100790.81;;;25.82;35.70
42385;BME280;28042;43.986;22.860;2022-08-01T06:04:50;100787.19;;;25.81;35.60
42385;BME280;28042;43.986;22.860;2022-08-01T06:07:15;100783.44;;;25.91;35.87
42385;BME280;28042;43.986;22.860;2022-08-01T06:09:41;100788.69;;;26.16;35.32
42385;BME280;28042;43.986;22.860;2022-08-01T06:12:06;100794.97;;;26.27;35.42
42385;BME280;28042;43.986;22.860;2022-08-01T06:14:31;100803.69;;;26.26;35.36
42385;BME280;28042;43.986;22.860;2022-08-01T06:16:57;100796.41;;;26.25;35.46
42385;BME280;28042;43.986;22.860;2022-08-01T06:19:22;100803.25;;;26.13;35.47
42385;BME280;28042;43.986;22.860;2022-08-01T06:21:47;100807.56;;;26.06;36.01
42385;BME280;28042;43.986;22.860;2022-08-01T06:24:13;100797.53;;;26.24;35.97
42385;BME280;28042;43.986;22.860;2022-08-01T06:26:38;100809.47;;;26.53;35.34
42385;BME280;28042;43.986;22.860;2022-08-01T06:29:03;100799.13;;;26.30;35.69
42385;BME280;28042;43.986;22.860;2022-08-01T06:31:29;100798.09;;;26.26;35.59
42385;BME280;28042;43.986;22.860;2022-08-01T06:33:56;100807.09;;;25.70;36.26
42385;BME280;28042;43.986;22.860;2022-08-01T06:36:22;100790.94;;;25.67;36.73
42385;BME280;28042;43.986;22.860;2022-08-01T06:38:47;100811.44;;;25.28;37.32
42385;BME280;28042;43.986;22.860;2022-08-01T06:41:12;100789.56;;;25.40;37.98
42385;BME280;28042;43.986;22.860;2022-08-01T06:43:38;100792.34;;;25.40;37.99
42385;BME280;28042;43.986;22.860;2022-08-01T06:46:03;100790.34;;;24.77;38.31
42385;BME280;28042;43.986;22.860;2022-08-01T06:48:29;100793.28;;;24.91;38.45
42385;BME280;28042;43.986;22.860;2022-08-01T06:50:54;100785.44;;;24.98;38.46
42385;BME280;28042;43.986;22.860;2022-08-01T06:53:33;100794.09;;;24.97;38.83
42385;BME280;28042;43.986;22.860;2022-08-01T06:55:58;100792.75;;;24.89;38.92
42385;BME280;28042;43.986;22.860;2022-08-01T06:58:23;100789.28;;;25.07;38.68
42385;BME280;28042;43.986;22.860;2022-08-01T07:00:49;100780.63;;;25.09;39.11
42385;BME280;28042;43.986;22.860;2022-08-01T07:03:14;100786.03;;;25.29;38.77
42385;BME280;28042;43.986;22.860;2022-08-01T07:05:39;100789.09;;;25.28;38.99
42385;BME280;28042;43.986;22.860;2022-08-01T07:08:05;100793.94;;;25.17;38.85
42385;BME280;28042;43.986;22.860;2022-08-01T07:10:30;100787.34;;;25.37;39.17
42385;BME280;28042;43.986;22.860;2022-08-01T07:12:55;100782.22;;;25.20;39.14
42385;BME280;28042;43.986;22.860;2022-08-01T07:15:20;100782.34;;;25.34;38.93
42385;BME280;28042;43.986;22.860;2022-08-01T07:17:51;100780.56;;;25.43;38.53
42385;BME280;28042;43.986;22.860;2022-08-01T07:20:16;100782.03;;;25.35;38.81
42385;BME280;28042;43.986;22.860;2022-08-01T07:22:42;100778.91;;;25.42;38.36
42385;BME280;28042;43.986;22.860;2022-08-01T07:25:07;100787.91;;;25.63;38.62
42385;BME280;28042;43.986;22.860;2022-08-01T07:27:33;100783.22;;;25.58;38.39
42385;BME280;28042;43.986;22.860;2022-08-01T07:29:59;100786.22;;;25.62;38.73
42385;BME280;28042;43.986;22.860;2022-08-01T07:32:25;100786.00;;;25.58;38.87
42385;BME280;28042;43.986;22.860;2022-08-01T07:34:51;100785.56;;;25.75;39.05
42385;BME280;28042;43.986;22.860;2022-08-01T07:37:16;100796.69;;;25.80;38.40
42385;BME280;28042;43.986;22.860;2022-08-01T07:39:42;100788.78;;;25.58;38.83
42385;BME280;28042;43.986;22.860;2022-08-01T07:42:07;100782.28;;;25.92;38.78
42385;BME280;28042;43.986;22.860;2022-08-01T07:44:33;100799.38;;;25.61;38.80
42385;BME280;28042;43.986;22.860;2022-08-01T07:46:58;100793.91;;;25.51;39.27
42385;BME280;28042;43.986;22.860;2022-08-01T07:49:23;100792.28;;;25.45;39.61
42385;BME280;28042;43.986;22.860;2022-08-01T07:51:49;100776.31;;;25.51;39.10
42385;BME280;28042;43.986;22.860;2022-08-01T07:54:14;100775.31;;;25.65;40.02
42385;BME280;28042;43.986;22.860;2022-08-01T07:56:39;100789.84;;;25.62;39.40
42385;BME280;28042;43.986;22.860;2022-08-01T07:59:05;100790.28;;;25.51;39.50
42385;BME280;28042;43.986;22.860;2022-08-01T08:01:30;100774.88;;;25.53;39.66
42385;BME280;28042;43.986;22.860;2022-08-01T08:03:55;100770.78;;;25.46;39.54
42385;BME280;28042;43.986;22.860;2022-08-01T08:06:21;100774.78;;;25.63;39.68
42385;BME280;28042;43.986;22.860;2022-08-01T08:08:46;100788.50;;;25.89;39.57
42385;BME280;28042;43.986;22.860;2022-08-01T08:11:12;100777.31;;;25.89;39.59
42385;BME280;28042;43.986;22.860;2022-08-01T08:13:37;100770.25;;;25.68;39.87
42385;BME280;28042;43.986;22.860;2022-08-01T08:16:03;100770.28;;;25.91;39.79
42385;BME280;28042;43.986;22.860;2022-08-01T08:18:28;100770.78;;;26.17;38.96
42385;BME280;28042;43.986;22.860;2022-08-01T08:20:53;100771.78;;;26.27;39.00
42385;BME280;28042;43.986;22.860;2022-08-01T08:23:19;100768.59;;;26.33;38.37
42385;BME280;28042;43.986;22.860;2022-08-01T08:26:02;100785.59;;;26.42;38.49
42385;BME280;28042;43.986;22.860;2022-08-01T08:28:28;100778.16;;;26.51;38.55
42385;BME280;28042;43.986;22.860;2022-08-01T08:30:53;100774.84;;;26.68;38.44
42385;BME280;28042;43.986;22.860;2022-08-01T08:33:20;100772.91;;;26.82;38.33
42385;BME280;28042;43.986;22.860;2022-08-01T08:35:45;100763.38;;;26.83;38.04
42385;BME280;28042;43.986;22.860;2022-08-01T08:38:10;100773.22;;;26.81;38.04
42385;BME280;28042;43.986;22.860;2022-08-01T08:40:36;100764.16;;;26.70;38.30
42385;BME280;28042;43.986;22.860;2022-08-01T08:43:03;100777.03;;;26.71;37.95
42385;BME280;28042;43.986;22.860;2022-08-01T08:45:29;100766.41;;;26.87;38.27
42385;BME280;28042;43.986;22.860;2022-08-01T08:47:54;100782.13;;;26.83;38.21
42385;BME280;28042;43.986;22.860;2022-08-01T08:50:20;100773.88;;;27.10;37.92
42385;BME280;28042;43.986;22.860;2022-08-01T08:52:45;100770.66;;;27.17;37.55
42385;BME280;28042;43.986;22.860;2022-08-01T08:55:13;100765.53;;;27.38;37.08
42385;BME280;28042;43.986;22.860;2022-08-01T08:57:40;100786.56;;;27.21;36.82
42385;BME280;28042;43.986;22.860;2022-08-01T09:00:07;100772.06;;;27.19;36.89
42385;BME280;28042;43.986;22.860;2022-08-01T09:02:34;100751.75;;;27.41;36.73
42385;BME280;28042;43.986;22.860;2022-08-01T09:04:59;100772.28;;;27.37;37.50
42385;BME280;28042;43.986;22.860;2022-08-01T09:07:25;100766.50;;;27.47;36.56
42385;BME280;28042;43.986;22.860;2022-08-01T09:09:51;100762.19;;;27.36;36.51
42385;BME280;28042;43.986;22.860;2022-08-01T09:12:17;100758.91;;;27.61;36.63
42385;BME280;28042;43.986;22.860;2022-08-01T09:14:46;100763.81;;;27.69;36.33
42385;BME280;28042;43.986;22.860;2022-08-01T09:17:12;100760.09;;;27.74;36.37
42385;BME280;28042;43.986;22.860;2022-08-01T09:22:07;100769.75;;;27.95;36.21
42385;BME280;28042;43.986;22.860;2022-08-01T09:24:32;100754.28;;;27.84;36.84
42385;BME280;28042;43.986;22.860;2022-08-01T09:26:59;100758.00;;;27.93;35.68
42385;BME280;28042;43.986;22.860;2022-08-01T09:29:26;100763.16;;;27.45;36.16
42385;BME280;28042;43.986;22.860;2022-08-01T09:31:51;100755.47;;;27.37;36.93
42385;BME280;28042;43.986;22.860;2022-08-01T09:34:23;100743.06;;;27.70;37.36
42385;BME280;28042;43.986;22.860;2022-08-01T09:36:53;100745.47;;;27.91;36.05
42385;BME280;28042;43.986;22.860;2022-08-01T09:39:25;100736.78;;;28.14;35.61
42385;BME280;28042;43.986;22.860;2022-08-01T09:41:51;100742.94;;;28.16;35.60
42385;BME280;28042;43.986;22.860;2022-08-01T09:44:17;100740.09;;;28.30;35.70
42385;BME280;28042;43.986;22.860;2022-08-01T09:46:54;100732.59;;;28.39;34.88
42385;BME280;28042;43.986;22.860;2022-08-01T09:49:27;100739.84;;;28.40;34.60
42385;BME280;28042;43.986;22.860;2022-08-01T09:51:52;100747.16;;;28.41;34.29
42385;BME280;28042;43.986;22.860;2022-08-01T09:54:27;100736.38;;;28.35;34.88
42385;BME280;28042;43.986;22.860;2022-08-01T09:56:52;100735.31;;;28.67;35.05
42385;BME280;28042;43.986;22.860;2022-08-01T09:59:18;100722.91;;;28.46;35.31
42385;BME280;28042;43.986;22.860;2022-08-01T10:01:49;100728.44;;;28.23;35.76
42385;BME280;28042;43.986;22.860;2022-08-01T10:04:16;100735.03;;;28.55;34.90
42385;BME280;28042;43.986;22.860;2022-08-01T10:06:43;100740.00;;;28.35;35.41
42385;BME280;28042;43.986;22.860;2022-08-01T10:09:10;100731.16;;;28.28;34.74
42385;BME280;28042;43.986;22.860;2022-08-01T10:11:39;100726.06;;;28.30;34.89
42385;BME280;28042;43.986;22.860;2022-08-01T10:14:05;100743.00;;;28.25;35.02
42385;BME280;28042;43.986;22.860;2022-08-01T10:16:32;100739.25;;;28.43;34.86
42385;BME280;28042;43.986;22.860;2022-08-01T10:18:58;100728.44;;;28.23;34.80
42385;BME280;28042;43.986;22.860;2022-08-01T10:21:25;100728.63;;;28.40;35.24
42385;BME280;28042;43.986;22.860;2022-08-01T10:23:51;100725.50;;;28.78;35.23
42385;BME280;28042;43.986;22.860;2022-08-01T10:26:19;100728.44;;;28.95;34.72
42385;BME280;28042;43.986;22.860;2022-08-01T10:28:44;100720.44;;;28.66;34.81
42385;BME280;28042;43.986;22.860;2022-08-01T10:31:13;100717.13;;;28.64;35.54
42385;BME280;28042;43.986;22.860;2022-08-01T10:33:38;100715.13;;;28.87;35.13
42385;BME280;28042;43.986;22.860;2022-08-01T10:36:06;100719.25;;;29.04;35.28
42385;BME280;28042;43.986;22.860;2022-08-01T10:38:31;100726.00;;;28.80;34.15
42385;BME280;28042;43.986;22.860;2022-08-01T10:40:57;100734.59;;;28.61;34.33
42385;BME280;28042;43.986;22.860;2022-08-01T10:43:24;100712.44;;;28.82;33.91
42385;BME280;28042;43.986;22.860;2022-08-01T10:45:49;100728.28;;;29.00;34.61
42385;BME280;28042;43.986;22.860;2022-08-01T10:48:21;100707.69;;;29.45;33.91
42385;BME280;28042;43.986;22.860;2022-08-01T10:50:51;100723.06;;;29.78;33.73
42385;BME280;28042;43.986;22.860;2022-08-01T10:53:21;100718.97;;;29.93;33.19
42385;BME280;28042;43.986;22.860;2022-08-01T10:58:25;100713.50;;;29.97;32.84
42385;BME280;28042;43.986;22.860;2022-08-01T11:01:12;100719.41;;;29.69;33.58
42385;BME280;28042;43.986;22.860;2022-08-01T11:03:37;100723.44;;;28.92;34.36
42385;BME280;28042;43.986;22.860;2022-08-01T11:06:03;100719.16;;;28.72;34.92
42385;BME280;28042;43.986;22.860;2022-08-01T11:08:30;100712.53;;;29.13;34.40
42385;BME280;28042;43.986;22.860;2022-08-01T11:11:02;100699.09;;;29.41;33.69
42385;BME280;28042;43.986;22.860;2022-08-01T11:19:06;100707.84;;;29.79;33.77
42385;BME280;28042;43.986;22.860;2022-08-01T11:24:24;100701.53;;;29.34;34.30
42385;BME280;28042;43.986;22.860;2022-08-01T11:27:18;100698.13;;;29.15;34.58
42385;BME280;28042;43.986;22.860;2022-08-01T11:30:10;100706.03;;;29.44;34.33
42385;BME280;28042;43.986;22.860;2022-08-01T11:32:29;100712.88;;;29.51;34.40
42385;BME280;28042;43.986;22.860;2022-08-01T11:34:55;100707.88;;;29.48;33.86
42385;BME280;28042;43.986;22.860;2022-08-01T11:37:23;100711.94;;;29.65;33.59
42385;BME280;28042;43.986;22.860;2022-08-01T11:42:33;100715.06;;;30.11;32.71
42385;BME280;28042;43.986;22.860;2022-08-01T11:44:58;100705.91;;;29.97;33.08
42385;BME280;28042;43.986;22.860;2022-08-01T11:50:07;100710.69;;;29.88;33.02
42385;BME280;28042;43.986;22.860;2022-08-01T11:52:56;100709.34;;;29.77;33.24
42385;BME280;28042;43.986;22.860;2022-08-01T11:55:22;100703.06;;;29.80;33.29
42385;BME280;28042;43.986;22.860;2022-08-01T11:57:48;100706.53;;;29.86;32.85
42385;BME280;28042;43.986;22.860;2022-08-01T12:00:14;100688.16;;;29.79;33.28
42385;BME280;28042;43.986;22.860;2022-08-01T12:02:40;100701.91;;;29.81;33.49
42385;BME280;28042;43.986;22.860;2022-08-01T12:05:09;100705.59;;;29.99;33.18
42385;BME280;28042;43.986;22.860;2022-08-01T12:07:37;100689.31;;;29.78;33.04
42385;BME280;28042;43.986;22.860;2022-08-01T12:10:21;100699.34;;;30.19;32.59
42385;BME280;28042;43.986;22.860;2022-08-01T12:12:52;100686.25;;;30.32;32.45
42385;BME280;28042;43.986;22.860;2022-08-01T12:15:18;100689.94;;;30.32;31.84
42385;BME280;28042;43.986;22.860;2022-08-01T12:17:44;100693.16;;;29.91;32.84
42385;BME280;28042;43.986;22.860;2022-08-01T12:20:13;100703.72;;;29.77;33.02
42385;BME280;28042;43.986;22.860;2022-08-01T12:22:39;100689.28;;;29.30;33.60
42385;BME280;28042;43.986;22.860;2022-08-01T12:25:07;100699.88;;;29.33;33.91
42385;BME280;28042;43.986;22.860;2022-08-01T12:27:33;100685.31;;;29.31;33.41
42385;BME280;28042;43.986;22.860;2022-08-01T12:29:59;100676.88;;;29.71;33.21
42385;BME280;28042;43.986;22.860;2022-08-01T12:34:50;100673.31;;;30.05;32.79
42385;BME280;28042;43.986;22.860;2022-08-01T12:37:15;100679.38;;;29.72;33.12
42385;BME280;28042;43.986;22.860;2022-08-01T12:39:41;100683.19;;;29.76;32.85
42385;BME280;28042;43.986;22.860;2022-08-01T12:42:07;100669.97;;;29.77;33.15
42385;BME280;28042;43.986;22.860;2022-08-01T12:44:32;100672.16;;;29.97;32.94
42385;BME280;28042;43.986;22.860;2022-08-01T12:46:58;100671.28;;;29.88;32.48
42385;BME280;28042;43.986;22.860;2022-08-01T12:49:25;100673.63;;;29.07;33.81
42385;BME280;28042;43.986;22.860;2022-08-01T12:51:52;100666.34;;;29.37;33.85
42385;BME280;28042;43.986;22.860;2022-08-01T12:54:18;100667.06;;;29.51;33.38
42385;BME280;28042;43.986;22.860;2022-08-01T12:56:44;100662.63;;;29.59;33.37
42385;BME280;28042;43.986;22.860;2022-08-01T13:02:08;100653.56;;;29.70;32.84
42385;BME280;28042;43.986;22.860;2022-08-01T13:04:33;100660.56;;;29.90;33.00
42385;BME280;28042;43.986;22.860;2022-08-01T13:07:13;100672.69;;;30.17;32.55
42385;BME280;28042;43.986;22.860;2022-08-01T13:09:48;100671.06;;;30.16;32.41
42385;BME280;28042;43.986;22.860;2022-08-01T13:12:13;100671.66;;;30.04;32.10
42385;BME280;28042;43.986;22.860;2022-08-01T13:14:39;100665.25;;;30.21;31.63
42385;BME280;28042;43.986;22.860;2022-08-01T13:17:04;100676.00;;;30.36;31.62